createdAt,value
2019-03-20T18:29:13.840Z,1.82
2019-03-20T18:31:46.184Z,2.17
2019-03-20T18:34:16.121Z,1.98
2019-03-20T18:36:46.342Z,2.47
2019-03-20T18:39:16.533Z,2.25
2019-03-20T18:41:46.748Z,2.40
2019-03-20T18:44:16.944Z,2.47
2019-03-20T18:46:47.147Z,2.55
2019-03-20T18:49:17.511Z,2.60
2019-03-20T18:51:47.744Z,2.50
2019-03-20T18:54:17.949Z,2.55
2019-03-20T18:56:47.651Z,2.47
2019-03-20T18:59:17.947Z,2.35
2019-03-20T19:01:48.273Z,2.80
2019-03-20T19:04:18.321Z,2.52
2019-03-20T19:06:48.951Z,2.62
2019-03-20T19:09:19.147Z,2.55
2019-03-20T19:11:49.511Z,2.40
2019-03-20T19:14:19.711Z,2.30
2019-03-20T19:16:50.107Z,2.40
2019-03-20T19:19:20.315Z,2.30
2019-03-20T19:21:49.968Z,1.90
2019-03-20T19:24:20.167Z,2.25
2019-03-20T19:26:50.454Z,1.95
2019-03-20T19:29:21.070Z,2.25
2019-03-20T19:31:51.275Z,2.35
2019-03-20T19:34:21.567Z,2.05
2019-03-20T19:36:51.864Z,2.05
2019-03-20T19:39:22.073Z,2.08
2019-03-20T19:41:52.291Z,2.08
2019-03-20T19:44:21.952Z,1.95
2019-03-20T19:46:52.162Z,2.00
2019-03-20T19:49:22.392Z,2.20
2019-03-20T19:51:52.612Z,2.00
2019-03-20T19:54:22.840Z,2.05
2019-03-20T19:56:53.067Z,2.10
2019-03-20T19:59:23.271Z,2.22
2019-03-20T20:01:53.480Z,2.10
2019-03-20T20:04:23.695Z,2.25
2019-03-20T20:06:54.180Z,2.20
2019-03-20T20:09:24.516Z,2.17
2019-03-20T20:11:54.887Z,2.40
2019-03-20T20:14:25.116Z,3.52
2019-03-20T20:16:55.332Z,4.83
2019-03-20T20:19:25.576Z,20.90
2019-03-20T20:21:55.810Z,27.42
2019-03-20T20:24:26.055Z,19.98
2019-03-20T20:26:56.380Z,16.90
2019-03-20T20:29:26.633Z,16.73
2019-03-20T20:31:56.871Z,17.52
2019-03-20T20:34:27.128Z,17.23
2019-03-20T20:36:57.443Z,15.35
2019-03-20T20:39:27.819Z,16.40
2019-03-20T20:41:58.059Z,15.95
2019-03-20T20:44:28.070Z,14.78
2019-03-20T20:46:58.121Z,14.38
2019-03-20T20:49:28.369Z,14.65
2019-03-20T20:51:58.895Z,14.28
2019-03-20T20:54:29.140Z,13.20
2019-03-20T20:56:59.776Z,14.03
2019-03-20T20:59:30.020Z,12.47
2019-03-20T21:02:00.262Z,13.15
2019-03-20T21:04:31.688Z,12.80
2019-03-20T21:07:03.103Z,12.88
2019-03-20T21:09:33.407Z,12.20
2019-03-20T21:12:03.697Z,12.07
2019-03-20T21:14:33.933Z,12.75
2019-03-20T21:17:05.917Z,11.28
2019-03-20T21:19:36.231Z,11.75
2019-03-20T21:22:32.512Z,12.25
2019-03-20T21:25:02.819Z,11.68
2019-03-20T21:28:09.771Z,11.93
2019-03-20T21:30:49.240Z,11.03
2019-03-20T21:33:26.752Z,10.88
2019-03-20T21:36:29.012Z,10.30
2019-03-20T21:38:59.265Z,10.85
2019-03-20T21:41:32.771Z,10.85
2019-03-20T21:44:26.003Z,10.00
2019-03-20T21:47:17.164Z,9.33
2019-03-20T21:49:47.541Z,9.50
2019-03-20T21:52:17.771Z,9.73
2019-03-20T21:55:18.624Z,9.23
2019-03-20T21:58:07.219Z,9.05
2019-03-20T22:01:14.014Z,8.95
2019-03-20T22:03:44.288Z,8.00
2019-03-20T22:06:21.637Z,8.43
